Time;durP1;ratioP1;P1;durP2;ratioP2;P2;SDS_P1;SDS_P2;PMS_P1;PMS_P2;Temp;Humidity;BMP_temperature;BMP_pressure;BME280_temperature;BME280_humidity;BME280_pressure;Samples;Min_cycle;Max_cycle;Signal;HPM_P1;HPM_P2
2021/07/11 00:02:12;;;;;;;14.98;11.70;;;18.90;99.90;;;;;;4993641;28;20113;-77
2021/07/11 00:04:37;;;;;;;13.68;12.27;;;18.90;99.90;;;;;;4976316;28;20030;-69
2021/07/11 00:07:03;;;;;;;14.10;12.60;;;18.90;99.90;;;;;;4976526;28;20026;-68
2021/07/11 00:09:28;;;;;;;13.85;11.77;;;18.90;99.90;;;;;;4993756;28;20045;-69
2021/07/11 00:11:54;;;;;;;13.40;11.73;;;18.90;99.90;;;;;;4993448;28;20043;-69
2021/07/11 00:14:20;;;;;;;13.52;12.05;;;18.90;99.90;;;;;;4976495;28;20029;-68
2021/07/11 00:16:45;;;;;;;14.00;11.57;;;18.90;99.90;;;;;;4976476;28;20073;-69
2021/07/11 00:19:11;;;;;;;14.45;12.98;;;18.90;99.90;;;;;;4992958;28;20088;-70
2021/07/11 00:21:36;;;;;;;12.80;11.20;;;18.90;99.90;;;;;;4993717;28;20022;-69
2021/07/11 00:24:02;;;;;;;13.05;11.60;;;18.90;99.90;;;;;;4993640;28;20034;-70
2021/07/11 00:26:28;;;;;;;13.77;12.38;;;18.90;99.90;;;;;;4993288;28;20031;-75
2021/07/11 00:28:53;;;;;;;14.27;11.95;;;18.90;99.90;;;;;;4993871;28;20097;-69
2021/07/11 00:31:19;;;;;;;13.82;12.30;;;18.90;99.90;;;;;;4992985;28;20105;-70
2021/07/11 00:33:45;;;;;;;12.95;11.57;;;18.90;99.90;;;;;;4993910;28;20026;-70
2021/07/11 00:36:10;;;;;;;15.55;11.88;;;18.90;99.90;;;;;;4993510;28;20023;-69
2021/07/11 00:38:36;;;;;;;15.00;11.70;;;18.90;99.90;;;;;;4992813;28;20057;-69
2021/07/11 00:41:01;;;;;;;16.20;11.80;;;18.90;99.90;;;;;;4993762;28;20030;-70
2021/07/11 00:43:27;;;;;;;12.02;10.52;;;18.90;99.90;;;;;;4993426;28;20101;-69
2021/07/11 00:45:53;;;;;;;12.50;11.30;;;19.00;99.90;;;;;;4975987;28;20384;-69
2021/07/11 00:48:18;;;;;;;13.02;11.45;;;19.00;99.90;;;;;;4992624;28;20038;-69
2021/07/11 00:50:46;;;;;;;13.77;12.30;;;19.00;99.90;;;;;;4993581;28;20103;-71
2021/07/11 00:53:13;;;;;;;14.48;11.82;;;19.10;99.90;;;;;;4993051;28;20030;-69
2021/07/11 00:55:39;;;;;;;13.85;12.45;;;19.10;99.90;;;;;;4993488;28;20029;-69
2021/07/11 00:58:05;;;;;;;14.30;11.90;;;19.10;99.90;;;;;;4993271;28;20032;-70
2021/07/11 01:00:31;;;;;;;16.98;13.02;;;19.10;99.90;;;;;;4992863;28;20050;-70
2021/07/11 01:03:07;;;;;;;14.10;12.70;;;19.10;99.90;;;;;;4975930;28;20032;-69
2021/07/11 01:05:33;;;;;;;13.88;12.48;;;19.00;99.90;;;;;;4993483;28;20026;-72
2021/07/11 01:08:17;;;;;;;15.80;12.82;;;19.00;99.90;;;;;;4992729;28;20035;-69
2021/07/11 01:11:00;;;;;;;14.57;13.18;;;19.00;99.90;;;;;;4993665;28;20088;-69
2021/07/11 01:13:28;;;;;;;13.63;12.02;;;18.90;99.90;;;;;;4992426;28;20043;-69
2021/07/11 01:15:56;;;;;;;15.35;13.85;;;18.90;99.90;;;;;;4992911;28;20057;-68
2021/07/11 01:18:24;;;;;;;14.25;12.85;;;18.90;99.90;;;;;;4975605;28;20030;-69
2021/07/11 01:20:55;;;;;;;14.95;13.38;;;18.90;99.90;;;;;;4992684;28;20106;-69
2021/07/11 01:23:36;;;;;;;14.70;13.20;;;18.80;99.90;;;;;;4992997;28;20027;-70
2021/07/11 01:26:05;;;;;;;14.93;12.65;;;18.90;99.90;;;;;;4993612;28;20026;-68
2021/07/11 01:28:30;;;;;;;15.52;13.15;;;18.90;99.90;;;;;;4992576;28;20034;-69
2021/07/11 01:30:57;;;;;;;13.82;12.40;;;18.80;99.90;;;;;;4992570;28;20037;-69
2021/07/11 01:33:26;;;;;;;14.60;13.10;;;18.80;99.90;;;;;;4978556;28;20310;-67
2021/07/11 01:35:52;;;;;;;13.75;12.32;;;18.80;99.90;;;;;;4996137;28;20026;-68
2021/07/11 01:38:20;;;;;;;14.55;13.05;;;18.80;99.90;;;;;;4996751;28;20097;-68
2021/07/11 01:40:48;;;;;;;13.63;12.23;;;18.80;99.90;;;;;;4997172;28;20543;-69
2021/07/11 01:43:17;;;;;;;14.70;13.23;;;18.80;99.90;;;;;;4996204;28;20014;-68
2021/07/11 01:45:43;;;;;;;13.70;12.30;;;18.80;99.90;;;;;;4997095;28;20077;-68
2021/07/11 01:48:08;;;;;;;13.38;12.05;;;18.80;99.90;;;;;;4996642;28;20043;-69
2021/07/11 01:50:34;;;;;;;15.05;13.23;;;18.80;99.90;;;;;;4978479;28;20537;-68
2021/07/11 01:53:01;;;;;;;17.10;14.13;;;18.70;99.90;;;;;;4996745;28;20065;-70
2021/07/11 01:55:28;;;;;;;18.30;16.33;;;18.70;99.90;;;;;;4996538;28;20050;-69
2021/07/11 01:57:54;;;;;;;17.30;15.20;;;18.70;99.90;;;;;;4996208;28;20485;-71
2021/07/11 02:00:21;;;;;;;16.50;14.88;;;18.70;99.90;;;;;;4996422;28;20069;-68
2021/07/11 02:02:48;;;;;;;16.88;15.18;;;18.70;99.90;;;;;;4995954;28;20113;-68
2021/07/11 02:05:16;;;;;;;17.00;15.20;;;18.70;99.90;;;;;;4996980;28;20149;-68
2021/07/11 02:07:42;;;;;;;16.95;15.25;;;18.70;99.90;;;;;;4995976;28;20132;-67
2021/07/11 02:10:10;;;;;;;16.27;14.57;;;18.70;99.90;;;;;;4995422;28;20084;-70
2021/07/11 02:12:58;;;;;;;18.45;14.55;;;18.70;99.90;;;;;;4996449;28;20068;-75
2021/07/11 02:15:29;;;;;;;16.27;14.68;;;18.60;99.90;;;;;;4978832;28;20394;-69
2021/07/11 02:17:56;;;;;;;16.00;14.38;;;18.60;99.90;;;;;;4995874;28;20029;-69
2021/07/11 02:20:23;;;;;;;16.80;15.10;;;18.50;99.90;;;;;;4995739;28;20521;-71
2021/07/11 02:22:50;;;;;;;17.02;15.32;;;18.60;99.90;;;;;;4978925;28;20050;-68
2021/07/11 02:25:17;;;;;;;16.30;14.70;;;18.60;99.90;;;;;;4977885;28;20402;-68
2021/07/11 02:27:46;;;;;;;16.88;15.18;;;18.50;99.90;;;;;;4996137;28;20045;-68
2021/07/11 02:30:17;;;;;;;17.45;15.65;;;18.50;99.90;;;;;;4995401;28;20022;-68
2021/07/11 02:32:47;;;;;;;17.77;15.88;;;18.50;99.90;;;;;;4995726;28;20113;-70
2021/07/11 02:35:15;;;;;;;17.35;15.63;;;18.50;99.90;;;;;;4995656;28;20023;-69
2021/07/11 02:37:47;;;;;;;18.58;16.77;;;18.40;99.90;;;;;;4996279;28;20042;-68
2021/07/11 02:40:14;;;;;;;18.55;16.65;;;18.50;99.90;;;;;;4994958;28;20107;-68
2021/07/11 02:42:40;;;;;;;17.58;15.88;;;18.50;99.90;;;;;;4997234;28;20002;-68
2021/07/11 02:45:07;;;;;;;18.75;16.60;;;18.50;99.90;;;;;;4977229;28;20420;-70
2021/07/11 02:47:37;;;;;;;20.52;16.85;;;18.40;99.90;;;;;;4995860;28;20030;-69
2021/07/11 02:50:05;;;;;;;19.23;17.00;;;18.50;99.90;;;;;;4978273;28;20125;-68
2021/07/11 02:52:31;;;;;;;19.27;17.13;;;18.40;99.90;;;;;;4994626;28;20099;-68
2021/07/11 02:55:02;;;;;;;19.35;17.27;;;18.50;99.90;;;;;;4995759;28;20033;-73
2021/07/11 02:57:29;;;;;;;19.50;17.17;;;18.40;99.90;;;;;;4978268;28;20026;-78
2021/07/11 02:59:57;;;;;;;21.13;18.63;;;18.40;99.90;;;;;;4994762;28;20390;-83
2021/07/11 03:02:25;;;;;;;20.25;18.13;;;18.40;99.90;;;;;;4977950;28;20125;-72
2021/07/11 03:04:51;;;;;;;18.63;16.60;;;18.40;99.90;;;;;;4995608;28;20032;-77
2021/07/11 03:07:17;;;;;;;19.80;17.80;;;18.40;99.90;;;;;;4994488;28;20022;-77
2021/07/11 03:09:43;;;;;;;18.33;16.48;;;18.40;99.90;;;;;;4995387;28;20100;-69
2021/07/11 03:12:13;;;;;;;18.85;16.30;;;18.30;99.90;;;;;;4994595;28;20054;-69
2021/07/11 03:14:39;;;;;;;22.02;16.35;;;18.40;99.90;;;;;;4994855;28;20125;-70
2021/07/11 03:17:06;;;;;;;19.83;17.92;;;18.40;99.90;;;;;;4995029;28;20378;-71
2021/07/11 03:19:37;;;;;;;19.38;17.45;;;18.30;99.90;;;;;;4995380;28;20475;-82
2021/07/11 03:22:04;;;;;;;19.85;17.85;;;18.40;99.90;;;;;;4994370;28;20034;-69
2021/07/11 03:24:31;;;;;;;20.83;18.65;;;18.40;99.90;;;;;;4995230;28;20497;-74
2021/07/11 03:26:57;;;;;;;20.38;18.35;;;18.40;99.90;;;;;;4994987;28;20061;-68
2021/07/11 03:29:35;;;;;;;19.90;17.90;;;18.40;99.90;;;;;;4994021;28;20056;-69
2021/07/11 03:32:02;;;;;;;18.98;17.02;;;18.40;99.90;;;;;;4977412;28;20033;-68
2021/07/11 03:34:30;;;;;;;18.98;17.15;;;18.40;99.90;;;;;;4994255;28;20030;-68
2021/07/11 03:36:59;;;;;;;20.25;18.23;;;18.40;99.90;;;;;;4994693;28;20034;-70
2021/07/11 03:39:26;;;;;;;21.40;18.80;;;18.40;99.90;;;;;;4994466;28;20040;-81
2021/07/11 03:41:54;;;;;;;22.88;20.58;;;18.40;99.90;;;;;;4990343;28;20058;-79
2021/07/11 03:44:22;;;;;;;23.13;20.73;;;18.40;99.90;;;;;;4979908;28;20419;-75
2021/07/11 03:46:49;;;;;;;22.08;19.83;;;18.30;99.90;;;;;;4979950;28;20070;-72
2021/07/11 03:49:17;;;;;;;21.52;19.42;;;18.30;99.90;;;;;;4986064;28;20034;-75
2021/07/11 03:51:45;;;;;;;20.73;18.65;;;18.30;99.90;;;;;;4980132;28;20031;-73
2021/07/11 03:54:12;;;;;;;21.52;19.33;;;18.30;99.90;;;;;;4962273;28;20542;-81
2021/07/11 03:56:42;;;;;;;20.42;18.52;;;18.30;99.90;;;;;;4979258;28;20199;-70
2021/07/11 03:59:10;;;;;;;22.45;20.23;;;18.30;99.90;;;;;;4979654;28;20019;-75
2021/07/11 04:01:38;;;;;;;19.88;17.60;;;18.30;99.90;;;;;;4976034;28;20027;-70
2021/07/11 04:04:08;;;;;;;19.50;17.52;;;18.30;99.90;;;;;;4980595;28;20068;-69
2021/07/11 04:06:34;;;;;;;19.85;17.63;;;18.30;99.90;;;;;;4994555;28;20041;-77
2021/07/11 04:09:03;;;;;;;19.85;17.95;;;18.30;99.90;;;;;;4976948;28;20113;-69
2021/07/11 04:11:31;;;;;;;20.73;17.52;;;18.30;99.90;;;;;;4993574;28;20019;-70
2021/07/11 04:13:57;;;;;;;19.92;17.92;;;18.30;99.90;;;;;;4994158;28;20184;-69
2021/07/11 04:16:27;;;;;;;21.10;18.98;;;18.30;99.90;;;;;;4993287;28;20105;-71
2021/07/11 04:18:55;;;;;;;21.48;19.38;;;18.20;99.90;;;;;;4993636;28;20030;-69
2021/07/11 04:21:22;;;;;;;21.92;19.73;;;18.10;99.90;;;;;;4993719;28;20098;-74
2021/07/11 04:23:48;;;;;;;23.02;20.58;;;18.10;99.90;;;;;;4993161;28;20045;-81
2021/07/11 04:26:15;;;;;;;22.00;19.75;;;18.10;99.90;;;;;;4993652;28;20029;-69
2021/07/11 04:28:43;;;;;;;22.80;20.50;;;18.10;99.90;;;;;;4994098;28;20030;-81
2021/07/11 04:31:10;;;;;;;23.52;21.02;;;18.10;99.90;;;;;;4992912;28;20028;-69
2021/07/11 04:33:35;;;;;;;23.40;19.77;;;18.00;99.90;;;;;;4993771;28;20121;-69
2021/07/11 04:36:05;;;;;;;21.67;19.30;;;18.00;99.90;;;;;;4976449;28;20483;-68
2021/07/11 04:38:31;;;;;;;22.80;20.45;;;18.00;99.90;;;;;;4993067;28;20034;-69
2021/07/11 04:40:57;;;;;;;22.33;20.02;;;18.00;99.90;;;;;;4993819;28;20096;-81
2021/07/11 04:43:23;;;;;;;22.55;20.33;;;18.00;99.90;;;;;;4993522;28;20522;-69
2021/07/11 04:45:48;;;;;;;23.10;20.58;;;18.00;99.90;;;;;;4993184;28;20029;-69
2021/07/11 04:48:15;;;;;;;24.42;21.92;;;18.00;99.90;;;;;;4993092;28;20069;-69
2021/07/11 04:50:45;;;;;;;23.65;21.23;;;18.10;99.90;;;;;;4993625;28;20105;-69
2021/07/11 04:53:15;;;;;;;23.47;21.17;;;18.10;99.90;;;;;;4992885;28;20022;-70
2021/07/11 04:55:44;;;;;;;22.88;20.45;;;18.10;99.90;;;;;;4993652;28;20281;-71
2021/07/11 04:58:09;;;;;;;22.67;20.48;;;18.10;99.90;;;;;;4993316;28;20019;-74
2021/07/11 05:00:35;;;;;;;22.88;20.58;;;18.20;99.90;;;;;;4974967;28;20028;-77
2021/07/11 05:03:00;;;;;;;21.00;18.92;;;18.20;99.90;;;;;;4993491;28;20026;-78
2021/07/11 05:05:26;;;;;;;22.90;20.60;;;18.20;99.90;;;;;;4975644;28;20482;-78
2021/07/11 05:07:52;;;;;;;23.90;21.35;;;18.20;99.90;;;;;;4992795;28;20590;-73
2021/07/11 05:10:17;;;;;;;23.23;20.88;;;18.20;99.90;;;;;;4993141;28;20044;-69
2021/07/11 05:12:43;;;;;;;21.02;19.00;;;18.20;99.90;;;;;;4992888;28;20054;-69
2021/07/11 05:15:09;;;;;;;22.02;19.67;;;18.30;99.90;;;;;;4974892;28;20546;-69
2021/07/11 05:17:35;;;;;;;22.45;20.25;;;18.40;99.90;;;;;;4993170;28;20061;-70
2021/07/11 05:20:01;;;;;;;21.65;19.55;;;18.50;99.90;;;;;;4992590;28;20061;-68
2021/07/11 05:22:27;;;;;;;22.80;20.60;;;18.50;99.90;;;;;;4975712;28;20023;-68
2021/07/11 05:24:52;;;;;;;23.10;20.83;;;18.60;99.90;;;;;;4975942;28;20023;-81
2021/07/11 05:27:18;;;;;;;22.95;20.55;;;18.60;99.90;;;;;;4992455;28;20065;-69
2021/07/11 05:29:43;;;;;;;21.70;19.50;;;18.70;99.90;;;;;;4975685;28;20042;-69
2021/07/11 05:32:09;;;;;;;22.35;20.02;;;18.70;99.90;;;;;;4992692;28;20100;-75
2021/07/11 05:34:34;;;;;;;21.92;19.63;;;18.70;99.90;;;;;;4992635;28;20037;-69
2021/07/11 05:37:00;;;;;;;21.48;19.38;;;18.70;99.90;;;;;;4975855;28;20026;-75
2021/07/11 05:39:26;;;;;;;20.67;18.58;;;18.80;99.90;;;;;;4992763;28;20027;-69
2021/07/11 05:41:51;;;;;;;22.13;19.98;;;18.80;99.90;;;;;;4992267;28;20030;-74
2021/07/11 05:44:17;;;;;;;22.10;19.95;;;18.80;99.90;;;;;;4992832;28;20025;-77
2021/07/11 05:46:42;;;;;;;22.52;20.27;;;18.80;99.90;;;;;;4993103;28;20030;-76
2021/07/11 05:49:09;;;;;;;21.23;19.23;;;18.90;99.90;;;;;;4991913;28;20046;-74
2021/07/11 05:51:34;;;;;;;21.67;19.52;;;19.00;99.90;;;;;;4993291;28;20022;-76
2021/07/11 05:54:00;;;;;;;20.80;18.80;;;19.00;99.90;;;;;;4992773;28;20034;-82
2021/07/11 05:56:25;;;;;;;21.67;19.45;;;19.10;99.90;;;;;;4974817;28;20019;-82
2021/07/11 05:58:51;;;;;;;21.15;18.98;;;19.10;99.90;;;;;;4993203;28;20097;-72
2021/07/11 06:01:16;;;;;;;21.17;19.08;;;19.10;99.90;;;;;;4975045;28;20022;-82
2021/07/11 06:03:42;;;;;;;20.75;18.88;;;19.10;99.90;;;;;;4991971;28;20081;-69
2021/07/11 06:06:08;;;;;;;22.65;20.38;;;19.20;99.90;;;;;;4992679;28;20069;-81
2021/07/11 06:08:33;;;;;;;23.65;21.05;;;19.20;99.90;;;;;;4992877;28;20458;-69
2021/07/11 06:10:59;;;;;;;21.33;19.05;;;19.20;99.90;;;;;;4992256;28;20467;-80
2021/07/11 06:13:24;;;;;;;21.20;19.20;;;19.20;99.90;;;;;;4992556;28;20513;-79
2021/07/11 06:15:51;;;;;;;21.40;19.25;;;19.10;99.90;;;;;;4975184;28;20054;-74
2021/07/11 06:18:17;;;;;;;20.83;18.83;;;19.10;99.90;;;;;;4991992;28;20092;-76
2021/07/11 06:20:43;;;;;;;21.67;19.55;;;19.00;99.90;;;;;;4994467;28;20027;-74
2021/07/11 06:23:09;;;;;;;21.67;19.70;;;19.00;99.90;;;;;;4978451;28;20030;-79
2021/07/11 06:25:35;;;;;;;21.25;19.10;;;19.00;99.90;;;;;;4996463;28;20023;-77
2021/07/11 06:28:00;;;;;;;22.48;20.38;;;18.90;99.90;;;;;;4996066;28;20121;-69
2021/07/11 06:30:26;;;;;;;24.92;22.33;;;18.90;99.90;;;;;;4995415;28;20076;-82
2021/07/11 06:32:52;;;;;;;23.48;21.10;;;18.80;99.90;;;;;;4978851;28;20045;-80
2021/07/11 06:35:20;;;;;;;23.50;21.10;;;18.80;99.90;;;;;;4995756;28;20378;-77
2021/07/11 06:37:46;;;;;;;22.13;19.95;;;18.80;99.90;;;;;;4995563;28;20022;-72
2021/07/11 06:40:14;;;;;;;23.00;20.60;;;18.80;99.90;;;;;;4978263;28;20117;-68
2021/07/11 06:42:40;;;;;;;22.65;20.45;;;18.80;99.90;;;;;;4995978;28;20503;-82
2021/07/11 06:45:07;;;;;;;22.02;19.73;;;18.80;99.90;;;;;;4994507;28;20081;-68
2021/07/11 06:47:33;;;;;;;23.73;21.23;;;18.90;99.90;;;;;;4995957;28;20043;-71
2021/07/11 06:49:59;;;;;;;24.50;21.55;;;18.90;99.90;;;;;;4995195;28;20572;-69
2021/07/11 06:52:24;;;;;;;24.08;21.63;;;19.00;99.90;;;;;;4994987;28;20451;-71
2021/07/11 06:54:51;;;;;;;25.17;22.17;;;19.10;99.90;;;;;;4978711;28;20121;-80
2021/07/11 06:57:18;;;;;;;23.25;20.98;;;19.20;99.90;;;;;;4996161;28;20105;-71
2021/07/11 06:59:44;;;;;;;24.55;22.13;;;19.20;99.90;;;;;;4977325;28;20029;-70
2021/07/11 07:02:09;;;;;;;25.67;23.13;;;19.30;99.90;;;;;;4995550;28;20030;-78
2021/07/11 07:04:35;;;;;;;25.02;21.35;;;19.40;99.90;;;;;;4995218;28;20394;-70
2021/07/11 07:07:02;;;;;;;24.65;22.25;;;19.40;99.90;;;;;;4994543;28;20041;-76
2021/07/11 07:09:27;;;;;;;25.85;23.35;;;19.40;99.90;;;;;;4991443;28;20084;-71
2021/07/11 07:11:53;;;;;;;25.92;23.20;;;19.40;99.90;;;;;;4999345;28;20092;-73
2021/07/11 07:14:18;;;;;;;26.02;23.42;;;19.40;99.90;;;;;;4996274;28;20031;-70
2021/07/11 07:16:44;;;;;;;28.30;25.30;;;19.40;99.90;;;;;;4978460;28;20019;-75
2021/07/11 07:19:10;;;;;;;26.08;23.40;;;19.50;99.90;;;;;;4987728;28;20026;-70
2021/07/11 07:21:35;;;;;;;26.70;24.02;;;19.50;99.90;;;;;;4977365;28;20085;-70
2021/07/11 07:24:01;;;;;;;24.50;22.08;;;19.50;99.90;;;;;;4994849;28;20467;-70
2021/07/11 07:26:27;;;;;;;26.00;23.33;;;19.60;99.90;;;;;;4976361;28;20049;-70
2021/07/11 07:28:52;;;;;;;25.38;22.88;;;19.70;99.90;;;;;;4961167;28;20430;-73
2021/07/11 07:31:18;;;;;;;24.85;22.27;;;20.00;99.90;;;;;;4969255;28;20023;-77
2021/07/11 07:33:43;;;;;;;24.83;22.38;;;20.30;99.90;;;;;;4988010;28;20109;-82
2021/07/11 07:36:09;;;;;;;23.25;20.95;;;20.80;99.90;;;;;;4978614;28;20023;-79
2021/07/11 07:38:35;;;;;;;24.02;21.52;;;21.20;99.90;;;;;;4977392;28;20030;-80
2021/07/11 07:41:00;;;;;;;25.40;21.02;;;21.40;99.90;;;;;;4988959;28;20106;-80
2021/07/11 07:43:26;;;;;;;22.70;20.50;;;21.60;99.90;;;;;;4991369;28;20022;-70
2021/07/11 07:45:51;;;;;;;22.20;20.00;;;21.70;99.90;;;;;;4994345;28;20471;-70
2021/07/11 07:48:17;;;;;;;23.40;20.65;;;21.80;99.90;;;;;;4993206;28;20045;-79
2021/07/11 07:50:43;;;;;;;24.27;21.98;;;21.90;99.90;;;;;;4991894;28;20027;-70
2021/07/11 07:53:08;;;;;;;22.42;20.17;;;21.90;99.90;;;;;;4980836;28;20118;-69
2021/07/11 07:55:34;;;;;;;23.33;20.95;;;22.10;99.90;;;;;;4981774;28;20023;-76
2021/07/11 07:58:01;;;;;;;24.95;22.05;;;22.10;99.90;;;;;;4974673;28;20042;-69
2021/07/11 08:00:27;;;;;;;25.63;22.92;;;22.10;99.90;;;;;;4992191;28;20022;-70
2021/07/11 08:02:53;;;;;;;23.23;20.90;;;22.00;99.90;;;;;;4975856;28;20030;-70
2021/07/11 08:05:19;;;;;;;23.73;20.85;;;21.90;99.90;;;;;;4978245;28;20486;-86
2021/07/11 08:07:45;;;;;;;26.08;21.95;;;21.80;99.90;;;;;;4974201;28;20102;-74
2021/07/11 08:10:15;;;;;;;25.25;22.85;;;21.80;99.90;;;;;;4973668;28;20464;-71
2021/07/11 08:12:41;;;;;;;24.17;21.67;;;21.70;99.90;;;;;;4985989;28;20499;-70
2021/07/11 08:15:08;;;;;;;23.73;21.33;;;21.60;99.90;;;;;;4993197;28;20022;-84
2021/07/11 08:17:33;;;;;;;23.27;21.02;;;21.50;99.90;;;;;;4993043;28;20601;-70
2021/07/11 08:20:00;;;;;;;24.65;21.90;;;21.30;99.90;;;;;;4993646;28;20049;-80
2021/07/11 08:22:26;;;;;;;25.50;22.80;;;21.20;99.90;;;;;;4975776;28;20085;-69
2021/07/11 08:24:51;;;;;;;25.90;23.20;;;21.10;99.90;;;;;;4993076;28;20027;-69
2021/07/11 08:27:17;;;;;;;26.10;23.25;;;20.90;99.90;;;;;;4993313;28;20023;-70
2021/07/11 08:29:43;;;;;;;26.88;24.00;;;20.80;99.90;;;;;;4992861;28;20042;-70
2021/07/11 08:32:08;;;;;;;25.13;22.65;;;20.70;99.90;;;;;;4993414;28;20031;-69
2021/07/11 08:34:34;;;;;;;24.83;22.40;;;20.50;99.90;;;;;;4990711;28;20122;-70
2021/07/11 08:36:59;;;;;;;25.20;22.67;;;20.50;99.90;;;;;;4975162;28;20025;-69
2021/07/11 08:39:28;;;;;;;24.60;22.05;;;20.30;99.90;;;;;;4993091;28;20034;-72
2021/07/11 08:41:57;;;;;;;23.35;21.02;;;20.20;99.90;;;;;;5011310;28;20439;-71
2021/07/11 08:44:25;;;;;;;24.10;21.63;;;20.20;99.90;;;;;;5011897;28;20474;-75
2021/07/11 08:46:50;;;;;;;25.17;22.60;;;20.10;99.90;;;;;;5012535;28;20065;-76
2021/07/11 08:49:17;;;;;;;26.58;23.83;;;20.00;99.90;;;;;;5000079;28;20069;-69
2021/07/11 08:51:44;;;;;;;25.13;22.73;;;20.00;99.90;;;;;;4992502;28;20019;-69
2021/07/11 08:54:11;;;;;;;32.35;24.33;;;20.00;99.90;;;;;;4975864;28;20030;-69
2021/07/11 08:56:37;;;;;;;26.67;23.98;;;20.00;99.90;;;;;;4992160;28;20022;-68
2021/07/11 08:59:03;;;;;;;25.42;22.92;;;20.10;99.90;;;;;;4992514;28;20077;-69
2021/07/11 09:01:29;;;;;;;25.42;22.92;;;20.30;99.90;;;;;;4993097;28;20443;-71
2021/07/11 09:04:03;;;;;;;24.60;22.20;;;20.40;99.90;;;;;;4993196;28;20023;-75
2021/07/11 09:06:49;;;;;;;26.70;24.08;;;20.60;99.90;;;;;;4988833;28;20438;-72
2021/07/11 09:09:26;;;;;;;26.15;23.40;;;20.80;99.90;;;;;;4972034;28;20042;-70
2021/07/11 09:12:03;;;;;;;27.20;24.40;;;21.00;99.90;;;;;;4985971;28;20014;-71
2021/07/11 09:14:31;;;;;;;24.60;21.98;;;21.30;99.90;;;;;;4988320;28;20026;-72
2021/07/11 09:16:58;;;;;;;23.27;20.77;;;21.50;99.90;;;;;;4962578;28;20109;-70
2021/07/11 09:19:34;;;;;;;23.30;20.90;;;21.70;99.90;;;;;;4974472;28;20363;-72
2021/07/11 09:22:11;;;;;;;23.60;21.25;;;21.90;99.90;;;;;;4981660;28;20022;-68
2021/07/11 09:24:46;;;;;;;22.15;19.95;;;22.20;99.90;;;;;;4991415;28;20096;-69
2021/07/11 09:27:14;;;;;;;20.45;18.30;;;22.50;99.90;;;;;;4974213;28;20026;-81
2021/07/11 09:29:42;;;;;;;22.45;20.05;;;22.90;99.90;;;;;;4992789;28;20042;-78
2021/07/11 09:32:20;;;;;;;21.90;19.17;;;23.00;99.90;;;;;;4992555;28;20022;-85
2021/07/11 09:34:46;;;;;;;20.20;18.20;;;23.20;99.90;;;;;;4976227;28;20053;-70
2021/07/11 09:37:17;;;;;;;20.50;18.50;;;23.40;99.90;;;;;;4964599;28;20026;-82
2021/07/11 09:39:58;;;;;;;20.70;18.60;;;23.70;99.90;;;;;;4958400;28;20022;-76
2021/07/11 09:42:29;;;;;;;19.25;17.35;;;23.90;99.90;;;;;;4979673;28;20071;-68
2021/07/11 09:44:55;;;;;;;18.02;16.23;;;24.10;99.90;;;;;;4975365;28;20529;-68
2021/07/11 09:47:23;;;;;;;17.90;16.17;;;24.20;99.90;;;;;;4991531;28;20495;-81
2021/07/11 09:50:23;;;;;;;19.38;17.42;;;24.40;99.90;;;;;;4992645;28;20031;-83
2021/07/11 09:52:52;;;;;;;20.80;18.67;;;24.50;99.90;;;;;;4992707;28;20022;-71
2021/07/11 09:55:23;;;;;;;21.13;18.85;;;24.20;99.90;;;;;;4992937;28;20022;-72
2021/07/11 09:57:51;;;;;;;23.15;20.80;;;24.10;99.90;;;;;;4996149;28;20018;-69
2021/07/11 10:00:17;;;;;;;20.65;18.60;;;23.90;99.90;;;;;;4978631;28;20511;-68
2021/07/11 10:02:44;;;;;;;23.63;21.20;;;23.90;99.90;;;;;;4995722;28;20049;-70
2021/07/11 10:05:11;;;;;;;22.30;20.10;;;23.90;99.90;;;;;;4978228;28;20050;-69
2021/07/11 10:07:37;;;;;;;20.60;18.50;;;24.00;99.90;;;;;;4978660;28;20026;-86
2021/07/11 10:10:12;;;;;;;22.13;20.02;;;24.10;99.90;;;;;;4993447;28;20034;-81
2021/07/11 10:12:39;;;;;;;21.90;19.80;;;24.30;99.90;;;;;;4990247;28;20053;-87
2021/07/11 10:15:11;;;;;;;22.75;20.35;;;24.20;99.90;;;;;;4995680;28;20022;-69
2021/07/11 10:17:41;;;;;;;21.88;19.65;;;24.00;99.90;;;;;;4980635;28;20026;-78
2021/07/11 10:20:07;;;;;;;20.30;18.30;;;23.90;99.90;;;;;;4995025;28;20018;-88
2021/07/11 10:22:42;;;;;;;21.98;19.77;;;23.80;99.90;;;;;;4996101;28;20026;-82
2021/07/11 10:25:12;;;;;;;20.85;18.75;;;23.90;99.90;;;;;;4995779;28;20101;-88
2021/07/11 10:27:37;;;;;;;19.25;17.35;;;24.10;99.90;;;;;;4978119;28;20038;-68
2021/07/11 10:30:04;;;;;;;20.60;18.50;;;24.20;99.90;;;;;;4994387;28;20034;-68
2021/07/11 10:32:32;;;;;;;18.02;16.27;;;24.50;99.90;;;;;;4995513;28;20363;-69
2021/07/11 10:35:08;;;;;;;14.88;13.38;;;24.80;99.90;;;;;;4973009;28;20072;-69
2021/07/11 10:37:41;;;;;;;13.70;12.30;;;25.00;99.90;;;;;;4994902;28;20062;-89
2021/07/11 10:40:08;;;;;;;15.93;13.88;;;25.20;99.90;;;;;;4994545;28;20483;-76
2021/07/11 10:42:34;;;;;;;14.57;13.18;;;25.20;98.70;;;;;;4977878;28;20130;-76
2021/07/11 10:45:09;;;;;;;17.35;15.68;;;25.30;99.50;;;;;;4994810;28;20479;-76
2021/07/11 10:47:35;;;;;;;16.48;14.77;;;25.30;98.60;;;;;;4977408;28;20060;-74
2021/07/11 10:50:01;;;;;;;17.48;15.68;;;25.30;98.80;;;;;;4977476;28;20045;-69
2021/07/11 10:52:27;;;;;;;16.75;15.18;;;25.50;98.80;;;;;;4976594;28;20030;-77
2021/07/11 10:54:59;;;;;;;15.60;14.00;;;25.70;98.40;;;;;;4995421;28;20037;-74
2021/07/11 10:57:34;;;;;;;14.65;13.25;;;25.90;98.50;;;;;;4993731;28;20471;-77
2021/07/11 11:00:13;;;;;;;17.55;15.82;;;26.10;98.50;;;;;;4977601;28;20030;-72
2021/07/11 11:02:39;;;;;;;17.25;15.43;;;26.40;97.60;;;;;;4977829;28;20030;-68
2021/07/11 11:05:12;;;;;;;17.65;15.88;;;26.40;96.80;;;;;;4976371;28;20486;-81
2021/07/11 11:08:10;;;;;;;16.65;14.95;;;26.10;95.90;;;;;;4977058;28;20372;-77
2021/07/11 11:10:38;;;;;;;17.08;15.38;;;25.90;95.60;;;;;;4989232;28;20050;-70
2021/07/11 11:13:06;;;;;;;16.17;14.63;;;25.80;96.20;;;;;;4994529;28;20107;-69
2021/07/11 11:15:42;;;;;;;17.25;15.48;;;25.80;96.10;;;;;;5004845;28;20030;-81
2021/07/11 11:18:20;;;;;;;16.25;14.68;;;25.60;96.10;;;;;;4989646;28;20058;-78
2021/07/11 11:21:01;;;;;;;15.80;14.10;;;25.30;95.50;;;;;;4958033;28;20418;-76
2021/07/11 11:23:36;;;;;;;13.80;12.40;;;24.90;95.80;;;;;;4975207;28;20053;-74
2021/07/11 11:26:04;;;;;;;12.27;10.88;;;24.60;96.50;;;;;;4974766;28;20058;-82
2021/07/11 11:28:35;;;;;;;12.32;11.23;;;24.50;96.90;;;;;;4974824;28;20027;-71
2021/07/11 11:31:09;;;;;;;14.35;12.38;;;24.30;96.60;;;;;;4975113;28;20122;-82
2021/07/11 11:33:56;;;;;;;15.38;13.77;;;24.20;97.20;;;;;;4974635;28;20038;-72
2021/07/11 11:36:25;;;;;;;17.08;15.27;;;24.10;97.70;;;;;;4980052;28;20526;-71
2021/07/11 11:38:52;;;;;;;16.48;14.85;;;24.00;97.40;;;;;;4976347;28;20030;-78
2021/07/11 11:41:20;;;;;;;16.02;14.43;;;23.80;98.30;;;;;;4993430;28;20110;-85
2021/07/11 11:43:49;;;;;;;16.63;14.82;;;23.90;98.70;;;;;;4993651;28;20031;-72
2021/07/11 11:46:26;;;;;;;19.88;17.98;;;23.90;98.80;;;;;;4988001;28;20031;-71
2021/07/11 11:49:00;;;;;;;14.93;13.43;;;24.00;98.80;;;;;;4996682;28;20034;-73
2021/07/11 11:51:27;;;;;;;12.82;11.60;;;24.10;97.70;;;;;;4980164;28;20041;-70
2021/07/11 11:53:52;;;;;;;14.25;12.88;;;24.20;97.80;;;;;;4994214;28;20030;-70
2021/07/11 11:56:18;;;;;;;13.10;11.80;;;24.50;97.20;;;;;;4977345;28;20032;-69
2021/07/11 11:58:44;;;;;;;12.15;10.95;;;24.80;95.90;;;;;;4994774;28;20023;-69
2021/07/11 12:01:13;;;;;;;12.55;11.35;;;24.90;95.80;;;;;;4994036;28;20022;-89
2021/07/11 12:03:41;;;;;;;12.73;11.13;;;24.90;95.80;;;;;;4994927;28;20030;-90
2021/07/11 12:06:10;;;;;;;11.88;10.63;;;24.80;96.10;;;;;;4994685;28;20040;-86
2021/07/11 12:08:38;;;;;;;11.10;10.00;;;24.70;96.30;;;;;;4994422;28;20026;-70
2021/07/11 12:11:05;;;;;;;12.63;11.43;;;24.80;97.00;;;;;;4994722;28;20054;-69
2021/07/11 12:13:31;;;;;;;10.90;9.80;;;24.90;96.40;;;;;;4994362;28;20185;-90
2021/07/11 12:16:14;;;;;;;13.70;12.30;;;25.00;96.40;;;;;;4976275;28;20532;-69
2021/07/11 12:18:47;;;;;;;12.35;11.15;;;25.20;95.10;;;;;;4993901;28;20031;-91
2021/07/11 12:21:19;;;;;;;11.95;10.75;;;25.30;95.20;;;;;;4976597;28;20117;-89
2021/07/11 12:23:56;;;;;;;12.15;10.95;;;25.40;94.90;;;;;;4993528;28;20389;-69
2021/07/11 12:26:23;;;;;;;10.95;9.80;;;25.60;94.60;;;;;;4994044;28;20046;-69
2021/07/11 12:28:51;;;;;;;9.80;8.82;;;25.90;95.80;;;;;;4993503;28;20042;-90
2021/07/11 12:31:23;;;;;;;11.13;10.07;;;26.20;96.00;;;;;;4993727;28;20105;-70
2021/07/11 12:34:16;;;;;;;11.27;9.20;;;26.50;95.00;;;;;;4994269;28;20510;-70